createdAt,value
2022-10-13T00:01:40.932Z,99319.28
2022-10-13T00:04:09.790Z,99321.13
2022-10-13T00:06:38.263Z,99325.88
2022-10-13T00:09:06.488Z,99318.06
2022-10-13T00:11:35.063Z,99313.78
2022-10-13T00:14:05.993Z,99325.84
2022-10-13T00:16:35.762Z,99324.19
2022-10-13T00:19:06.229Z,99322.91
2022-10-13T00:21:34.638Z,99327.06
2022-10-13T00:24:03.848Z,99316.81
2022-10-13T00:26:32.764Z,99323.06
2022-10-13T00:29:00.979Z,99328.25
2022-10-13T00:31:30.938Z,99326.66
2022-10-13T00:34:02.179Z,99328.72
2022-10-13T00:36:30.968Z,99323.22
2022-10-13T00:38:59.769Z,99335.84
2022-10-13T00:41:29.611Z,99326.75
2022-10-13T00:44:00.334Z,99337.63
2022-10-13T00:46:30.289Z,99332.56
2022-10-13T00:49:00.507Z,99339.22
2022-10-13T00:51:33.107Z,99339.69
2022-10-13T00:54:01.849Z,99339.19
2022-10-13T00:56:32.237Z,99339.75
2022-10-13T00:59:02.431Z,99341.94
2022-10-13T01:01:30.810Z,99344.22
2022-10-13T01:03:59.098Z,99346.22
2022-10-13T01:06:27.222Z,99342.69
2022-10-13T01:08:56.826Z,99343.72
2022-10-13T01:11:41.803Z,99345.53
2022-10-13T01:14:16.023Z,99350.25
2022-10-13T01:16:51.254Z,99347.34
2022-10-13T01:19:28.893Z,99341.72
2022-10-13T01:22:04.275Z,99343.22
2022-10-13T01:24:45.562Z,99350.16
2022-10-13T01:27:28.950Z,99348.34
2022-10-13T01:30:09.992Z,99348.66
2022-10-13T01:32:45.366Z,99348.91
2022-10-13T01:35:16.485Z,99348.03
2022-10-13T01:37:48.227Z,99352.63
2022-10-13T01:40:21.375Z,99350.81
2022-10-13T01:42:53.754Z,99350.47
2022-10-13T01:45:28.764Z,99352.16
2022-10-13T01:47:59.631Z,99352.94
2022-10-13T01:50:28.385Z,99354.22
2022-10-13T01:52:57.323Z,99356.16
2022-10-13T01:55:25.554Z,99360.31
2022-10-13T01:57:53.683Z,99361.84
2022-10-13T02:00:23.102Z,99361.59
2022-10-13T02:03:00.610Z,99361.13
2022-10-13T02:05:35.864Z,99352.94
2022-10-13T02:08:05.552Z,99358.47
2022-10-13T02:10:36.946Z,99356.84
2022-10-13T02:13:06.709Z,99362.44
2022-10-13T02:15:39.464Z,99365.41
2022-10-13T02:18:10.304Z,99367.09
2022-10-13T02:20:39.678Z,99365.56
2022-10-13T02:23:09.971Z,99361.50
2022-10-13T02:25:38.423Z,99374.22
2022-10-13T02:28:07.101Z,99369.13
2022-10-13T02:30:35.576Z,99370.38
2022-10-13T02:33:04.679Z,99374.31
2022-10-13T02:35:34.408Z,99374.00
2022-10-13T02:38:03.023Z,99366.72
2022-10-13T02:40:31.358Z,99374.16
2022-10-13T02:42:59.986Z,99382.78
2022-10-13T02:45:28.217Z,99380.16
2022-10-13T02:47:58.006Z,99369.91
2022-10-13T02:50:26.376Z,99374.03
2022-10-13T02:52:56.128Z,99381.84
2022-10-13T02:55:24.309Z,99377.06
2022-10-13T02:57:52.388Z,99381.41
2022-10-13T03:00:21.486Z,99377.53
2022-10-13T03:02:49.900Z,99377.53
2022-10-13T03:05:18.079Z,99376.84
2022-10-13T03:07:46.171Z,99374.34
2022-10-13T03:10:16.063Z,99378.09
2022-10-13T03:12:44.277Z,99372.59
2022-10-13T03:15:12.287Z,99384.69
2022-10-13T03:17:41.234Z,99386.94
2022-10-13T03:20:10.109Z,99386.94
2022-10-13T03:22:38.371Z,99381.38
2022-10-13T03:25:07.242Z,99376.56
2022-10-13T03:27:37.397Z,99385.47
2022-10-13T03:30:05.990Z,99388.81
2022-10-13T03:32:34.424Z,99380.72
2022-10-13T03:35:03.073Z,99386.88
2022-10-13T03:37:32.310Z,99384.25
2022-10-13T03:40:01.043Z,99383.69
2022-10-13T03:42:29.203Z,99396.94
2022-10-13T03:44:58.844Z,99396.25
2022-10-13T03:47:26.881Z,99389.47
2022-10-13T03:49:55.550Z,99393.63
2022-10-13T03:52:24.715Z,99398.78
2022-10-13T03:54:52.984Z,99392.50
2022-10-13T03:57:21.384Z,99396.72
2022-10-13T03:59:50.354Z,99386.03
2022-10-13T04:02:20.387Z,99399.13
2022-10-13T04:04:48.779Z,99396.03
2022-10-13T04:07:16.744Z,99401.53
2022-10-13T04:09:44.891Z,99412.75
2022-10-13T04:12:17.082Z,99398.09
2022-10-13T04:14:48.169Z,99406.56
2022-10-13T04:17:16.518Z,99404.75
2022-10-13T04:19:46.284Z,99412.16
2022-10-13T04:22:14.802Z,99413.31
2022-10-13T04:24:43.519Z,99412.84
2022-10-13T04:27:11.816Z,99418.59
2022-10-13T04:29:39.821Z,99426.59
2022-10-13T04:32:08.006Z,99429.81
2022-10-13T04:34:36.386Z,99422.59
2022-10-13T04:37:06.537Z,99429.25
2022-10-13T04:39:36.590Z,99427.41
2022-10-13T04:42:05.261Z,99426.97
2022-10-13T04:44:33.375Z,99432.47
2022-10-13T04:47:02.081Z,99428.75
2022-10-13T04:49:30.487Z,99436.00
2022-10-13T04:51:58.910Z,99437.91
2022-10-13T04:54:28.641Z,99439.59
2022-10-13T04:56:57.179Z,99443.78
2022-10-13T04:59:26.575Z,99441.22
2022-10-13T05:01:56.229Z,99443.06
2022-10-13T05:04:25.122Z,99436.16
2022-10-13T05:07:16.959Z,99444.69
2022-10-13T05:09:48.031Z,99448.94
2022-10-13T05:12:16.923Z,99441.88
2022-10-13T05:14:45.389Z,99454.00
2022-10-13T05:17:14.202Z,99453.34
2022-10-13T05:19:42.675Z,99452.97
2022-10-13T05:22:11.005Z,99456.16
2022-10-13T05:24:39.339Z,99455.13
2022-10-13T05:27:10.900Z,99454.63
2022-10-13T05:29:39.577Z,99452.31
2022-10-13T05:32:08.488Z,99462.22
2022-10-13T05:34:36.655Z,99457.03
2022-10-13T05:37:05.145Z,99453.66
2022-10-13T05:39:33.401Z,99458.31
2022-10-13T05:42:02.118Z,99455.44
2022-10-13T05:44:31.629Z,99451.16
2022-10-13T05:47:03.682Z,99449.44
2022-10-13T05:49:36.621Z,99454.72
2022-10-13T05:52:07.948Z,99459.91
2022-10-13T05:54:37.955Z,99448.38
2022-10-13T05:57:08.204Z,99441.16
2022-10-13T05:59:39.277Z,99445.72
2022-10-13T06:02:09.736Z,99470.16
2022-10-13T06:04:40.188Z,99463.81
2022-10-13T06:07:10.224Z,99465.59
2022-10-13T06:09:39.249Z,99463.38
2022-10-13T06:12:08.284Z,99473.53
2022-10-13T06:14:41.653Z,99461.44
2022-10-13T06:17:09.966Z,99468.56
2022-10-13T06:19:38.235Z,99482.09
2022-10-13T06:22:06.662Z,99478.22
2022-10-13T06:24:34.994Z,99481.78
2022-10-13T06:27:04.969Z,99488.81
2022-10-13T06:29:34.346Z,99489.44
2022-10-13T06:32:05.796Z,99481.22
2022-10-13T06:34:35.346Z,99480.94
2022-10-13T06:37:04.422Z,99491.88
2022-10-13T06:39:33.496Z,99488.41
2022-10-13T06:42:03.892Z,99483.84
2022-10-13T06:44:33.637Z,99478.06
2022-10-13T06:47:04.666Z,99483.81
2022-10-13T06:49:36.561Z,99484.66
2022-10-13T06:52:13.048Z,99491.38
2022-10-13T06:54:42.129Z,99488.66
2022-10-13T06:57:17.410Z,99490.41
2022-10-13T06:59:46.823Z,99491.69
2022-10-13T07:02:15.186Z,99491.19
2022-10-13T07:04:45.668Z,99500.19
2022-10-13T07:07:17.437Z,99503.38
2022-10-13T07:09:46.763Z,99509.03
2022-10-13T07:12:15.494Z,99504.38
2022-10-13T07:14:44.116Z,99504.13
2022-10-13T07:17:12.839Z,99499.94
2022-10-13T07:19:41.592Z,99494.84
2022-10-13T07:22:23.466Z,99498.81
2022-10-13T07:25:03.502Z,99501.03
2022-10-13T07:27:44.355Z,99498.47
2022-10-13T07:30:17.397Z,99503.84
2022-10-13T07:32:50.828Z,99511.22
2022-10-13T07:35:21.028Z,99508.34
2022-10-13T07:37:55.069Z,99508.72
2022-10-13T07:40:38.704Z,99505.53
2022-10-13T07:52:46.578Z,99506.34
2022-10-13T07:57:52.803Z,99507.00
2022-10-13T08:00:24.807Z,99513.72
2022-10-13T08:02:54.872Z,99509.59
2022-10-13T08:05:23.114Z,99516.63
2022-10-13T08:07:56.022Z,99517.41
2022-10-13T08:10:29.816Z,99519.41
2022-10-13T08:12:58.551Z,99518.47
2022-10-13T08:15:27.330Z,99525.13
2022-10-13T08:17:56.802Z,99529.38
2022-10-13T08:20:28.889Z,99521.47
2022-10-13T08:23:07.292Z,99535.50
2022-10-13T08:25:38.631Z,99540.72
2022-10-13T08:28:08.054Z,99542.25
2022-10-13T08:30:36.557Z,99542.41
2022-10-13T08:33:06.980Z,99543.53
2022-10-13T08:35:35.630Z,99544.41
2022-10-13T08:38:04.361Z,99533.94
2022-10-13T08:40:35.697Z,99537.16
2022-10-13T08:43:08.639Z,99537.41
2022-10-13T08:45:42.370Z,99537.75
2022-10-13T08:48:14.475Z,99535.19
2022-10-13T08:50:44.321Z,99530.34
2022-10-13T08:53:27.105Z,99552.56
2022-10-13T08:56:02.891Z,99547.50
2022-10-13T08:58:35.597Z,99543.63
2022-10-13T09:01:13.481Z,99541.28
2022-10-13T09:03:55.136Z,99534.91
2022-10-13T09:06:28.943Z,99546.56
2022-10-13T09:08:58.844Z,99544.34
2022-10-13T09:11:34.335Z,99540.53
2022-10-13T09:14:06.003Z,99542.41
2022-10-13T09:16:52.417Z,99548.44
2022-10-13T09:19:25.559Z,99544.22
2022-10-13T09:21:54.895Z,99545.25
2022-10-13T09:24:23.832Z,99537.09
2022-10-13T09:27:05.156Z,99538.66
2022-10-13T09:29:38.799Z,99535.34
2022-10-13T09:32:17.078Z,99532.44
2022-10-13T09:34:49.196Z,99531.84
2022-10-13T09:37:20.524Z,99542.94
2022-10-13T09:40:11.742Z,99544.50
2022-10-13T09:42:59.141Z,99542.69
2022-10-13T09:45:37.411Z,99529.72
2022-10-13T09:48:08.012Z,99530.81
2022-10-13T09:50:39.842Z,99538.03
2022-10-13T09:53:17.863Z,99546.78
2022-10-13T09:55:51.210Z,99530.88
2022-10-13T09:58:23.930Z,99541.47
2022-10-13T10:00:57.746Z,99536.63
2022-10-13T10:03:28.204Z,99539.59
2022-10-13T10:05:58.980Z,99530.81
2022-10-13T10:08:34.085Z,99532.47
2022-10-13T10:11:16.093Z,99533.91
2022-10-13T10:13:46.405Z,99541.72
2022-10-13T10:16:21.571Z,99536.41
2022-10-13T10:18:56.307Z,99522.50
2022-10-13T10:21:32.751Z,99525.56
2022-10-13T10:24:08.358Z,99537.72
2022-10-13T10:29:30.039Z,99532.69
2022-10-13T10:32:16.304Z,99539.75
2022-10-13T10:34:49.993Z,99545.09
2022-10-13T10:37:21.409Z,99538.50
2022-10-13T10:40:00.259Z,99535.84
2022-10-13T10:42:48.459Z,99541.00
2022-10-13T10:45:23.630Z,99534.47
2022-10-13T10:47:54.617Z,99539.50
2022-10-13T10:50:23.898Z,99541.75
2022-10-13T10:52:56.714Z,99545.59
2022-10-13T10:55:28.246Z,99542.16
2022-10-13T10:58:02.159Z,99540.22
2022-10-13T11:00:36.018Z,99542.69
2022-10-13T11:03:07.537Z,99545.47
2022-10-13T11:05:54.610Z,99546.94
2022-10-13T11:08:40.082Z,99547.22
2022-10-13T11:11:28.640Z,99545.19
2022-10-13T11:13:59.988Z,99546.72
2022-10-13T11:16:34.809Z,99545.00
2022-10-13T11:19:07.515Z,99540.84
2022-10-13T11:21:54.622Z,99546.09
2022-10-13T11:24:46.488Z,99547.41
2022-10-13T11:27:21.725Z,99556.53
2022-10-13T11:29:55.003Z,99554.19
2022-10-13T11:32:55.443Z,99544.88
2022-10-13T11:35:30.024Z,99541.19
2022-10-13T11:38:07.825Z,99543.13
2022-10-13T11:40:40.458Z,99543.09
2022-10-13T11:43:18.063Z,99546.78
2022-10-13T11:45:54.556Z,99543.31
2022-10-13T11:48:43.787Z,99537.53
2022-10-13T13:04:39.869Z,99507.50
2022-10-13T13:10:27.583Z,99511.97
2022-10-13T13:15:47.933Z,99509.72
2022-10-13T13:18:40.091Z,99501.97
2022-10-13T13:24:21.891Z,99501.03
2022-10-13T13:26:58.725Z,99511.44
2022-10-13T13:29:27.888Z,99507.09
2022-10-13T13:32:19.977Z,99501.25
2022-10-13T13:34:49.341Z,99511.78
2022-10-13T13:37:34.292Z,99509.28
2022-10-13T13:40:04.273Z,99512.75
2022-10-13T13:45:22.447Z,99513.94
2022-10-13T13:47:51.172Z,99517.28
2022-10-13T13:50:21.881Z,99511.22
2022-10-13T13:52:51.882Z,99516.31
2022-10-13T13:55:20.702Z,99507.59
2022-10-13T13:57:49.805Z,99505.22
2022-10-13T14:00:19.083Z,99505.00
2022-10-13T14:02:47.571Z,99524.41
2022-10-13T14:05:16.356Z,99526.50
2022-10-13T14:07:44.874Z,99529.47
2022-10-13T14:10:25.404Z,99524.41
2022-10-13T14:12:54.530Z,99531.25
2022-10-13T14:15:27.252Z,99524.00
2022-10-13T14:20:44.307Z,99523.84
2022-10-13T14:23:12.960Z,99521.75
2022-10-13T14:25:43.247Z,99524.31
2022-10-13T14:28:17.237Z,99520.13
2022-10-13T14:30:46.863Z,99527.19
2022-10-13T14:33:19.793Z,99526.34
2022-10-13T14:35:48.997Z,99519.16
2022-10-13T14:38:17.582Z,99532.47
2022-10-13T14:40:47.295Z,99537.63
2022-10-13T14:43:15.594Z,99537.31
2022-10-13T14:45:43.717Z,99532.41
2022-10-13T14:48:12.627Z,99548.03
2022-10-13T14:50:41.620Z,99546.44
2022-10-13T14:53:15.421Z,99536.41
2022-10-13T14:55:45.117Z,99538.50
2022-10-13T14:58:15.522Z,99548.75
2022-10-13T15:00:44.417Z,99548.81
2022-10-13T15:03:13.101Z,99553.38
2022-10-13T15:05:42.531Z,99558.44
2022-10-13T15:14:04.532Z,99556.16
2022-10-13T16:12:49.859Z,99560.97
2022-10-13T16:15:45.913Z,99564.09
2022-10-13T16:18:38.593Z,99560.41
2022-10-13T17:18:14.293Z,99564.41
2022-10-13T17:20:51.739Z,99558.06
2022-10-13T17:23:20.449Z,99565.59
2022-10-13T17:25:48.688Z,99557.13
2022-10-13T17:28:19.391Z,99566.44
2022-10-13T17:30:47.781Z,99561.59
2022-10-13T17:33:16.373Z,99562.94
2022-10-13T17:35:45.087Z,99569.47
2022-10-13T17:38:14.204Z,99571.53
2022-10-13T17:40:45.991Z,99562.16
2022-10-13T17:43:14.506Z,99567.59
2022-10-13T17:45:44.015Z,99566.44
2022-10-13T17:48:15.974Z,99566.69
2022-10-13T17:50:46.778Z,99569.09
2022-10-13T17:53:16.352Z,99578.28
2022-10-13T17:55:44.777Z,99570.69
2022-10-13T17:58:12.895Z,99575.59
2022-10-13T18:01:08.151Z,99570.59
2022-10-13T18:03:31.761Z,99570.69
2022-10-13T18:06:00.285Z,99586.25
2022-10-13T18:08:30.107Z,99580.19
2022-10-13T18:11:07.470Z,99579.94
2022-10-13T18:13:37.055Z,99577.19
2022-10-13T18:16:06.855Z,99576.66
2022-10-13T18:18:37.675Z,99579.97
2022-10-13T18:26:50.563Z,99584.03
2022-10-13T18:29:23.047Z,99590.25
2022-10-13T18:31:51.086Z,99574.31
2022-10-13T18:34:20.681Z,99582.84
2022-10-13T18:36:50.846Z,99586.41
2022-10-13T18:39:19.942Z,99583.94
2022-10-13T18:41:49.469Z,99591.38
2022-10-13T18:44:17.574Z,99592.53
2022-10-13T18:46:48.543Z,99588.63
2022-10-13T18:49:18.353Z,99587.72
2022-10-13T18:51:50.589Z,99591.28
2022-10-13T18:54:18.880Z,99590.47
2022-10-13T18:56:46.863Z,99576.81
2022-10-13T18:59:14.764Z,99582.53
2022-10-13T19:01:43.000Z,99582.19
2022-10-13T19:04:12.929Z,99587.56
2022-10-13T19:06:41.134Z,99585.84
2022-10-13T19:09:12.494Z,99589.03
2022-10-13T19:11:40.916Z,99591.94
2022-10-13T19:14:12.179Z,99585.50
2022-10-13T19:16:41.918Z,99592.06
2022-10-13T19:19:10.374Z,99591.59
2022-10-13T19:21:38.813Z,99583.69
2022-10-13T19:24:07.412Z,99586.78
2022-10-13T19:26:37.410Z,99579.31
2022-10-13T19:29:09.449Z,99580.22
2022-10-13T19:31:38.163Z,99579.66
2022-10-13T19:34:06.232Z,99583.81
2022-10-13T19:36:44.614Z,99577.13
2022-10-13T19:39:15.039Z,99582.06
2022-10-13T19:41:48.462Z,99577.84
2022-10-13T19:44:17.073Z,99590.34
2022-10-13T19:46:45.850Z,99590.44
2022-10-13T19:49:15.447Z,99587.44
2022-10-13T19:51:43.789Z,99583.53
2022-10-13T19:54:13.309Z,99591.78
2022-10-13T19:56:43.895Z,99586.63
2022-10-13T19:59:16.500Z,99591.41
2022-10-13T20:01:44.597Z,99585.03
2022-10-13T20:04:13.749Z,99591.31
2022-10-13T20:06:41.775Z,99597.09
2022-10-13T20:09:09.762Z,99592.50
2022-10-13T20:11:37.723Z,99588.94
2022-10-13T20:14:05.761Z,99594.22
2022-10-13T20:16:36.789Z,99595.59
2022-10-13T20:19:04.900Z,99603.59
2022-10-13T20:21:33.232Z,99594.88
2022-10-13T20:24:01.288Z,99597.22
2022-10-13T20:26:29.384Z,99598.97
2022-10-13T20:28:58.456Z,99602.34
2022-10-13T20:31:26.919Z,99599.81
2022-10-13T20:33:57.561Z,99602.09
2022-10-13T20:36:26.221Z,99600.59
2022-10-13T20:38:54.242Z,99599.75
2022-10-13T20:41:23.282Z,99601.78
2022-10-13T20:43:51.745Z,99605.31
2022-10-13T20:46:20.686Z,99608.75
2022-10-13T20:51:39.079Z,99609.56
2022-10-13T20:54:07.917Z,99610.97
2022-10-13T20:56:35.914Z,99602.97
2022-10-13T20:59:04.952Z,99614.28
2022-10-13T21:01:34.114Z,99605.44
2022-10-13T21:04:02.111Z,99613.03
2022-10-13T21:06:30.450Z,99612.00
2022-10-13T21:09:00.151Z,99614.31
2022-10-13T21:11:28.371Z,99613.63
2022-10-13T21:13:56.359Z,99618.81
2022-10-13T21:16:27.355Z,99618.03
2022-10-13T21:18:55.807Z,99622.47
2022-10-13T21:21:24.609Z,99620.63
2022-10-13T21:23:53.360Z,99623.75
2022-10-13T21:29:13.690Z,99619.50
2022-10-13T21:34:30.240Z,99612.88
2022-10-13T21:36:58.352Z,99609.78
2022-10-13T21:39:28.518Z,99583.63
2022-10-13T21:41:56.468Z,99621.91
2022-10-13T21:44:27.667Z,99620.97
2022-10-13T21:46:55.668Z,99617.16
2022-10-13T21:49:23.638Z,99623.78
2022-10-13T21:51:51.675Z,99632.22
2022-10-13T21:54:19.744Z,99630.13
2022-10-13T21:56:47.810Z,99627.81
2022-10-13T21:59:16.007Z,99628.44
2022-10-13T22:01:45.502Z,99624.66
2022-10-13T22:04:14.441Z,99629.22
2022-10-13T22:06:42.828Z,99629.66
2022-10-13T22:09:11.254Z,99624.69
2022-10-13T22:11:40.258Z,99627.63
2022-10-13T22:14:09.265Z,99631.78
2022-10-13T22:16:38.972Z,99628.13
2022-10-13T22:19:08.448Z,99621.25
2022-10-13T22:21:37.483Z,99632.16
2022-10-13T22:24:06.684Z,99631.50
2022-10-13T22:26:35.501Z,99631.28
2022-10-13T22:29:04.427Z,99637.44
2022-10-13T22:31:33.301Z,99630.75
2022-10-13T22:34:01.989Z,99632.97
2022-10-13T22:36:32.086Z,99639.03
2022-10-13T22:39:01.516Z,99632.28
2022-10-13T22:41:29.766Z,99640.34
2022-10-13T22:43:58.830Z,99637.84
2022-10-13T22:46:27.988Z,99636.84
2022-10-13T22:48:56.405Z,99636.25
2022-10-13T22:51:25.719Z,99636.09
2022-10-13T22:53:55.342Z,99638.38
2022-10-13T22:56:24.890Z,99630.59
2022-10-13T22:58:53.067Z,99631.78
2022-10-13T23:01:21.829Z,99631.56
2022-10-13T23:03:50.309Z,99643.25
2022-10-13T23:06:19.590Z,99640.50
2022-10-13T23:08:47.666Z,99642.47
2022-10-13T23:11:18.441Z,99642.63
2022-10-13T23:13:46.981Z,99648.69
2022-10-13T23:16:15.907Z,99638.28
2022-10-13T23:18:44.316Z,99645.75
2022-10-13T23:21:13.624Z,99646.56
2022-10-13T23:23:41.691Z,99647.72
2022-10-13T23:26:11.009Z,99637.53
2022-10-13T23:28:40.573Z,99635.06
2022-10-13T23:31:10.518Z,99650.88
2022-10-13T23:33:38.520Z,99641.56
2022-10-13T23:36:07.240Z,99643.47
2022-10-13T23:38:35.749Z,99647.94
2022-10-13T23:41:04.484Z,99645.75
2022-10-13T23:43:32.585Z,99640.09
2022-10-13T23:46:02.083Z,99646.97
2022-10-13T23:48:30.156Z,99645.19
2022-10-13T23:50:58.387Z,99653.00
2022-10-13T23:53:26.327Z,99657.09
2022-10-13T23:55:54.410Z,99650.72
2022-10-13T23:58:22.457Z,99639.75
